Startpagina
METAR-TAF:

METAR-TAF

Vliegvelden :

Militair vliegvled Lanvéoc-Poulmic

Lanvéoc, Frankrijk

breedte: 48-17N, lengte: 004-26W, hoogte: 87 m

Actueel weer

Dit bericht is 21 minuten geleden gemaakt, om 11:30 UTC
Wind 9 kt uit het zuiden, variërend tussen het zuidoosten en het zuidzuidwesten
Temperatuur 24°C
Vochtigheid 36%
Druk 1019 hPa
Zicht 10 km of meer
geen wolken onder 1500 m en geen cumulonimbus

METAR: LFRL 101130Z AUTO 17009KT 140V200 CAVOK 24/08 Q1019 NOSIG

Tijdstip: 13:51 (11:51 UTC)

Verwachting

Dit bericht is 51 minuten geleden gemaakt, om 11:00 UTC
Verwachting geldig van 10 om 12 UTC tot 11 om 12 UTC
Wind 5 kt uit het oosten
Zicht 10 km of meer
geen wolken onder 1500 m en geen cumulonimbus
Tijdelijke
van 10 om 12 UTC tot 10 om 18 UTC
Wind 10 kt uit het zuidzuidoosten

TAF: LFRL 101100Z 1012/1112 09005KT CAVOK TEMPO 1012/1018 16010KT

Waarnemingen en weersverwachtingen van meer dan 4000 vliegvelden (METAR en TAF).

De beschikbare stations zijn de gele en rode punten op de kaart.

Ga met uw muis naar het station om de naam te zien.

Klik dan om waarnemingen en weersverwachtingen te zien.

kaart wijzigen: klik op de groene knoppen met een zwart kruis om in te zoomen, op de groene knop met een streepje om uit te zoomen of op de groene pijlen voor aangrenzende kaarten.


METAR-TAF: